sensor_id;sensor_type;location;lat;lon;timestamp;pressure;altitude;pressure_sealevel;temperature;humidity
30819;BME280;17546;42.674;23.284;2023-11-21T00:02:20;94533.56;;;13.35;43.08
30819;BME280;17546;42.674;23.284;2023-11-21T00:04:46;94533.28;;;13.38;43.02
30819;BME280;17546;42.674;23.284;2023-11-21T00:07:12;94559.22;;;13.52;43.36
30819;BME280;17546;42.674;23.284;2023-11-21T00:09:37;94551.84;;;13.55;43.13
30819;BME280;17546;42.674;23.284;2023-11-21T00:12:04;94546.38;;;13.43;43.11
30819;BME280;17546;42.674;23.284;2023-11-21T00:14:30;94494.75;;;13.18;42.70
30819;BME280;17546;42.674;23.284;2023-11-21T00:16:55;94566.50;;;13.55;42.84
30819;BME280;17546;42.674;23.284;2023-11-21T00:19:21;94513.44;;;13.23;42.77
30819;BME280;17546;42.674;23.284;2023-11-21T00:21:47;94544.66;;;13.40;42.88
30819;BME280;17546;42.674;23.284;2023-11-21T00:24:12;94563.78;;;13.50;43.06
30819;BME280;17546;42.674;23.284;2023-11-21T00:26:39;94556.53;;;13.41;43.22
30819;BME280;17546;42.674;23.284;2023-11-21T00:29:05;94564.47;;;13.56;43.25
30819;BME280;17546;42.674;23.284;2023-11-21T00:31:34;94517.38;;;13.33;43.02
30819;BME280;17546;42.674;23.284;2023-11-21T00:34:02;94543.84;;;13.46;43.14
30819;BME280;17546;42.674;23.284;2023-11-21T00:36:29;94516.13;;;13.34;42.98
30819;BME280;17546;42.674;23.284;2023-11-21T00:38:54;94535.97;;;13.50;43.13
30819;BME280;17546;42.674;23.284;2023-11-21T00:41:21;94542.28;;;13.50;43.20
30819;BME280;17546;42.674;23.284;2023-11-21T00:43:47;94542.75;;;13.54;42.85
30819;BME280;17546;42.674;23.284;2023-11-21T00:46:12;94550.78;;;13.58;42.84
30819;BME280;17546;42.674;23.284;2023-11-21T00:48:38;94559.97;;;13.53;42.88
30819;BME280;17546;42.674;23.284;2023-11-21T00:51:04;94529.50;;;13.36;42.77
30819;BME280;17546;42.674;23.284;2023-11-21T00:53:31;94554.50;;;13.41;43.00
30819;BME280;17546;42.674;23.284;2023-11-21T00:55:57;94546.31;;;13.49;42.77
30819;BME280;17546;42.674;23.284;2023-11-21T00:58:25;94513.66;;;13.25;42.45
30819;BME280;17546;42.674;23.284;2023-11-21T01:00:51;94491.22;;;13.17;42.58
30819;BME280;17546;42.674;23.284;2023-11-21T01:03:17;94532.00;;;13.39;42.88
30819;BME280;17546;42.674;23.284;2023-11-21T01:05:42;94546.16;;;13.41;42.89
30819;BME280;17546;42.674;23.284;2023-11-21T01:08:08;94508.19;;;13.14;42.68
30819;BME280;17546;42.674;23.284;2023-11-21T01:10:33;94503.66;;;13.11;43.03
30819;BME280;17546;42.674;23.284;2023-11-21T01:13:02;94507.72;;;13.10;42.90
30819;BME280;17546;42.674;23.284;2023-11-21T01:15:31;94532.69;;;13.15;42.91
30819;BME280;17546;42.674;23.284;2023-11-21T01:17:57;94533.22;;;13.14;43.28
30819;BME280;17546;42.674;23.284;2023-11-21T01:20:22;94536.28;;;13.10;43.19
30819;BME280;17546;42.674;23.284;2023-11-21T01:22:48;94533.03;;;13.06;43.33
30819;BME280;17546;42.674;23.284;2023-11-21T01:25:14;94534.25;;;13.11;43.29
30819;BME280;17546;42.674;23.284;2023-11-21T01:27:41;94496.31;;;12.83;43.08
30819;BME280;17546;42.674;23.284;2023-11-21T01:30:07;94538.84;;;13.08;43.12
30819;BME280;17546;42.674;23.284;2023-11-21T01:32:35;94534.00;;;13.09;43.20
30819;BME280;17546;42.674;23.284;2023-11-21T01:35:06;94524.97;;;13.02;43.07
30819;BME280;17546;42.674;23.284;2023-11-21T01:37:32;94534.59;;;13.01;43.30
30819;BME280;17546;42.674;23.284;2023-11-21T01:39:59;94506.72;;;12.77;43.34
30819;BME280;17546;42.674;23.284;2023-11-21T01:42:24;94538.19;;;12.96;43.32
30819;BME280;17546;42.674;23.284;2023-11-21T01:44:50;94543.66;;;13.08;43.10
30819;BME280;17546;42.674;23.284;2023-11-21T01:47:16;94505.44;;;12.78;43.02
30819;BME280;17546;42.674;23.284;2023-11-21T01:49:44;94518.19;;;12.98;43.02
30819;BME280;17546;42.674;23.284;2023-11-21T01:52:11;94521.03;;;12.92;43.08
30819;BME280;17546;42.674;23.284;2023-11-21T01:54:37;94526.53;;;12.98;43.09
30819;BME280;17546;42.674;23.284;2023-11-21T01:57:04;94519.00;;;12.87;43.13
30819;BME280;17546;42.674;23.284;2023-11-21T01:59:36;94539.44;;;12.95;43.04
30819;BME280;17546;42.674;23.284;2023-11-21T02:02:05;94536.66;;;12.95;43.10
30819;BME280;17546;42.674;23.284;2023-11-21T02:04:32;94520.31;;;12.86;43.08
30819;BME280;17546;42.674;23.284;2023-11-21T02:06:58;94512.38;;;12.66;43.28
30819;BME280;17546;42.674;23.284;2023-11-21T02:09:28;94527.44;;;12.76;43.34
30819;BME280;17546;42.674;23.284;2023-11-21T02:11:55;94487.22;;;12.47;43.56
30819;BME280;17546;42.674;23.284;2023-11-21T02:14:21;94531.50;;;12.75;43.58
30819;BME280;17546;42.674;23.284;2023-11-21T02:16:51;94514.09;;;12.74;43.34
30819;BME280;17546;42.674;23.284;2023-11-21T02:19:25;94515.19;;;12.60;43.58
30819;BME280;17546;42.674;23.284;2023-11-21T02:21:52;94494.50;;;12.55;43.37
30819;BME280;17546;42.674;23.284;2023-11-21T02:24:21;94484.97;;;12.45;43.64
30819;BME280;17546;42.674;23.284;2023-11-21T02:26:50;94528.47;;;12.73;43.44
30819;BME280;17546;42.674;23.284;2023-11-21T02:29:20;94523.66;;;12.79;43.32
30819;BME280;17546;42.674;23.284;2023-11-21T02:31:53;94521.66;;;12.74;43.42
30819;BME280;17546;42.674;23.284;2023-11-21T02:34:50;94525.88;;;12.80;43.45
30819;BME280;17546;42.674;23.284;2023-11-21T02:37:15;94513.34;;;12.68;43.43
30819;BME280;17546;42.674;23.284;2023-11-21T02:39:41;94515.91;;;12.66;43.34
30819;BME280;17546;42.674;23.284;2023-11-21T02:42:06;94476.38;;;12.43;43.31
30819;BME280;17546;42.674;23.284;2023-11-21T02:44:32;94507.81;;;12.63;43.46
30819;BME280;17546;42.674;23.284;2023-11-21T02:46:57;94519.16;;;12.70;43.39
30819;BME280;17546;42.674;23.284;2023-11-21T02:49:23;94524.47;;;12.68;43.25
30819;BME280;17546;42.674;23.284;2023-11-21T02:51:48;94508.91;;;12.54;43.43
30819;BME280;17546;42.674;23.284;2023-11-21T02:54:14;94469.69;;;12.27;43.40
30819;BME280;17546;42.674;23.284;2023-11-21T02:56:40;94486.06;;;12.31;43.54
30819;BME280;17546;42.674;23.284;2023-11-21T02:59:06;94517.81;;;12.41;43.91
30819;BME280;17546;42.674;23.284;2023-11-21T03:01:31;94453.63;;;12.09;43.67
30819;BME280;17546;42.674;23.284;2023-11-21T03:03:57;94518.22;;;12.56;43.64
30819;BME280;17546;42.674;23.284;2023-11-21T03:06:22;94507.91;;;12.51;43.71
30819;BME280;17546;42.674;23.284;2023-11-21T03:08:50;94509.72;;;12.43;43.74
30819;BME280;17546;42.674;23.284;2023-11-21T03:11:16;94519.03;;;12.51;43.60
30819;BME280;17546;42.674;23.284;2023-11-21T03:13:42;94482.31;;;12.23;43.69
30819;BME280;17546;42.674;23.284;2023-11-21T03:16:11;94503.47;;;12.37;43.74
30819;BME280;17546;42.674;23.284;2023-11-21T03:18:41;94510.75;;;12.40;43.77
30819;BME280;17546;42.674;23.284;2023-11-21T03:21:07;94523.91;;;12.39;43.50
30819;BME280;17546;42.674;23.284;2023-11-21T03:23:36;94505.81;;;12.22;43.83
30819;BME280;17546;42.674;23.284;2023-11-21T03:26:02;94499.03;;;12.17;43.82
30819;BME280;17546;42.674;23.284;2023-11-21T03:28:28;94538.22;;;12.49;43.85
30819;BME280;17546;42.674;23.284;2023-11-21T03:30:53;94499.22;;;12.30;43.73
30819;BME280;17546;42.674;23.284;2023-11-21T03:33:19;94424.22;;;11.89;43.66
30819;BME280;17546;42.674;23.284;2023-11-21T03:35:44;94513.22;;;12.49;43.67
30819;BME280;17546;42.674;23.284;2023-11-21T03:38:10;94486.25;;;12.38;43.44
30819;BME280;17546;42.674;23.284;2023-11-21T03:40:36;94525.31;;;12.57;43.57
30819;BME280;17546;42.674;23.284;2023-11-21T03:43:01;94519.25;;;12.53;43.68
30819;BME280;17546;42.674;23.284;2023-11-21T03:45:27;94493.88;;;12.32;43.94
30819;BME280;17546;42.674;23.284;2023-11-21T03:47:52;94497.66;;;12.35;44.03
30819;BME280;17546;42.674;23.284;2023-11-21T03:50:23;94504.84;;;12.13;44.31
30819;BME280;17546;42.674;23.284;2023-11-21T03:52:48;94508.50;;;12.38;44.20
30819;BME280;17546;42.674;23.284;2023-11-21T03:55:14;94462.69;;;12.15;44.04
30819;BME280;17546;42.674;23.284;2023-11-21T03:57:40;94492.13;;;12.35;44.14
30819;BME280;17546;42.674;23.284;2023-11-21T04:00:06;94465.56;;;11.98;44.67
30819;BME280;17546;42.674;23.284;2023-11-21T04:02:34;94505.19;;;12.40;44.23
30819;BME280;17546;42.674;23.284;2023-11-21T04:05:00;94454.88;;;12.13;44.36
30819;BME280;17546;42.674;23.284;2023-11-21T04:07:26;94492.41;;;12.26;44.55
30819;BME280;17546;42.674;23.284;2023-11-21T04:09:52;94473.25;;;12.22;44.32
30819;BME280;17546;42.674;23.284;2023-11-21T04:12:19;94383.19;;;11.65;44.32
30819;BME280;17546;42.674;23.284;2023-11-21T04:14:44;94454.31;;;12.20;44.15
30819;BME280;17546;42.674;23.284;2023-11-21T04:17:09;94487.06;;;12.33;44.26
30819;BME280;17546;42.674;23.284;2023-11-21T04:19:35;94454.63;;;12.11;44.37
30819;BME280;17546;42.674;23.284;2023-11-21T04:22:00;94494.00;;;12.51;44.24
30819;BME280;17546;42.674;23.284;2023-11-21T04:24:27;94498.06;;;12.50;44.17
30819;BME280;17546;42.674;23.284;2023-11-21T04:26:53;94493.03;;;12.49;44.29
30819;BME280;17546;42.674;23.284;2023-11-21T04:29:18;94508.06;;;12.29;44.72
30819;BME280;17546;42.674;23.284;2023-11-21T04:31:44;94455.88;;;12.10;44.27
30819;BME280;17546;42.674;23.284;2023-11-21T04:34:10;94494.56;;;12.44;44.14
30819;BME280;17546;42.674;23.284;2023-11-21T04:36:35;94496.66;;;12.32;44.54
30819;BME280;17546;42.674;23.284;2023-11-21T04:39:01;94463.16;;;12.19;44.31
30819;BME280;17546;42.674;23.284;2023-11-21T04:41:26;94484.03;;;12.37;44.23
30819;BME280;17546;42.674;23.284;2023-11-21T04:43:52;94506.66;;;12.52;43.75
30819;BME280;17546;42.674;23.284;2023-11-21T04:46:17;94487.00;;;12.39;43.99
30819;BME280;17546;42.674;23.284;2023-11-21T04:48:42;94505.41;;;12.48;43.96
30819;BME280;17546;42.674;23.284;2023-11-21T04:51:08;94485.59;;;12.27;44.05
30819;BME280;17546;42.674;23.284;2023-11-21T04:53:49;94518.00;;;12.07;44.62
30819;BME280;17546;42.674;23.284;2023-11-21T04:56:15;94502.00;;;12.30;43.97
30819;BME280;17546;42.674;23.284;2023-11-21T04:58:41;94477.56;;;12.17;43.82
30819;BME280;17546;42.674;23.284;2023-11-21T05:01:08;94479.31;;;12.20;43.95
30819;BME280;17546;42.674;23.284;2023-11-21T05:03:33;94467.00;;;12.10;43.89
30819;BME280;17546;42.674;23.284;2023-11-21T05:06:02;94481.72;;;11.94;44.14
30819;BME280;17546;42.674;23.284;2023-11-21T05:08:27;94491.28;;;12.04;44.25
30819;BME280;17546;42.674;23.284;2023-11-21T05:10:52;94475.63;;;12.01;43.82
30819;BME280;17546;42.674;23.284;2023-11-21T05:13:19;94465.56;;;11.98;44.21
30819;BME280;17546;42.674;23.284;2023-11-21T05:15:45;94507.31;;;12.23;44.17
30819;BME280;17546;42.674;23.284;2023-11-21T05:18:11;94507.81;;;12.27;44.16
30819;BME280;17546;42.674;23.284;2023-11-21T05:20:39;94464.75;;;12.09;44.00
30819;BME280;17546;42.674;23.284;2023-11-21T05:23:04;94494.19;;;12.23;44.32
30819;BME280;17546;42.674;23.284;2023-11-21T05:25:30;94486.13;;;12.19;44.04
30819;BME280;17546;42.674;23.284;2023-11-21T05:27:55;94464.75;;;12.03;44.35
30819;BME280;17546;42.674;23.284;2023-11-21T05:30:21;94514.09;;;12.27;44.25
30819;BME280;17546;42.674;23.284;2023-11-21T05:32:47;94510.59;;;12.27;44.30
30819;BME280;17546;42.674;23.284;2023-11-21T05:35:12;94470.63;;;11.94;44.44
30819;BME280;17546;42.674;23.284;2023-11-21T05:37:42;94472.34;;;12.03;44.52
30819;BME280;17546;42.674;23.284;2023-11-21T05:40:08;94501.28;;;12.18;44.16
30819;BME280;17546;42.674;23.284;2023-11-21T05:42:37;94496.78;;;12.10;44.35
30819;BME280;17546;42.674;23.284;2023-11-21T05:45:04;94524.22;;;12.25;44.28
30819;BME280;17546;42.674;23.284;2023-11-21T06:01:10;94506.59;;;12.16;44.50
30819;BME280;17546;42.674;23.284;2023-11-21T06:03:38;94474.91;;;11.95;44.35
30819;BME280;17546;42.674;23.284;2023-11-21T06:06:05;94462.28;;;11.94;44.18
30819;BME280;17546;42.674;23.284;2023-11-21T06:08:32;94472.59;;;11.99;44.20
30819;BME280;17546;42.674;23.284;2023-11-21T06:10:57;94467.34;;;11.95;44.35
30819;BME280;17546;42.674;23.284;2023-11-21T06:13:22;94489.53;;;11.95;44.44
30819;BME280;17546;42.674;23.284;2023-11-21T06:15:50;94512.94;;;12.11;44.51
30819;BME280;17546;42.674;23.284;2023-11-21T06:18:16;94527.75;;;12.25;44.72
30819;BME280;17546;42.674;23.284;2023-11-21T06:20:45;94512.13;;;12.16;44.52
30819;BME280;17546;42.674;23.284;2023-11-21T06:23:10;94518.19;;;12.20;44.30
30819;BME280;17546;42.674;23.284;2023-11-21T06:25:36;94524.59;;;12.04;44.53
30819;BME280;17546;42.674;23.284;2023-11-21T06:28:02;94524.88;;;11.84;44.99
30819;BME280;17546;42.674;23.284;2023-11-21T06:30:27;94518.06;;;11.85;45.16
30819;BME280;17546;42.674;23.284;2023-11-21T06:32:54;94535.97;;;11.95;45.25
30819;BME280;17546;42.674;23.284;2023-11-21T06:35:20;94524.38;;;11.91;45.32
30819;BME280;17546;42.674;23.284;2023-11-21T06:37:46;94496.41;;;11.66;45.58
30819;BME280;17546;42.674;23.284;2023-11-21T06:40:13;94533.47;;;11.80;45.51
30819;BME280;17546;42.674;23.284;2023-11-21T06:42:43;94543.28;;;11.98;45.20
30819;BME280;17546;42.674;23.284;2023-11-21T06:45:09;94540.81;;;11.77;45.09
30819;BME280;17546;42.674;23.284;2023-11-21T06:47:36;94554.94;;;11.74;45.53
30819;BME280;17546;42.674;23.284;2023-11-21T06:50:03;94549.88;;;11.72;45.45
30819;BME280;17546;42.674;23.284;2023-11-21T06:52:29;94518.19;;;11.51;45.27
30819;BME280;17546;42.674;23.284;2023-11-21T06:54:54;94503.09;;;11.29;45.73
30819;BME280;17546;42.674;23.284;2023-11-21T06:57:20;94547.16;;;11.61;45.45
30819;BME280;17546;42.674;23.284;2023-11-21T06:59:45;94547.66;;;11.48;45.94
30819;BME280;17546;42.674;23.284;2023-11-21T07:02:11;94539.66;;;11.33;46.03
30819;BME280;17546;42.674;23.284;2023-11-21T07:04:36;94535.09;;;11.30;46.19
30819;BME280;17546;42.674;23.284;2023-11-21T07:07:02;94508.63;;;11.35;45.91
30819;BME280;17546;42.674;23.284;2023-11-21T07:09:29;94539.84;;;11.58;45.77
30819;BME280;17546;42.674;23.284;2023-11-21T07:11:55;94478.38;;;11.31;45.76
30819;BME280;17546;42.674;23.284;2023-11-21T07:14:21;94531.94;;;11.85;45.32
30819;BME280;17546;42.674;23.284;2023-11-21T07:16:47;94533.69;;;11.99;45.04
30819;BME280;17546;42.674;23.284;2023-11-21T07:19:13;94529.69;;;11.83;45.43
30819;BME280;17546;42.674;23.284;2023-11-21T07:21:39;94541.25;;;12.04;45.16
30819;BME280;17546;42.674;23.284;2023-11-21T07:24:05;94508.94;;;12.01;45.24
30819;BME280;17546;42.674;23.284;2023-11-21T07:26:32;94525.72;;;12.26;44.73
30819;BME280;17546;42.674;23.284;2023-11-21T07:28:58;94541.56;;;12.42;44.70
30819;BME280;17546;42.674;23.284;2023-11-21T07:31:24;94523.66;;;12.37;44.66
30819;BME280;17546;42.674;23.284;2023-11-21T07:33:50;94548.25;;;12.64;44.55
30819;BME280;17546;42.674;23.284;2023-11-21T07:36:16;94538.38;;;12.68;44.69
30819;BME280;17546;42.674;23.284;2023-11-21T07:38:44;94545.34;;;12.80;44.42
30819;BME280;17546;42.674;23.284;2023-11-21T07:41:10;94536.97;;;12.86;43.96
30819;BME280;17546;42.674;23.284;2023-11-21T07:43:36;94525.28;;;12.93;43.88
30819;BME280;17546;42.674;23.284;2023-11-21T07:46:03;94536.28;;;13.10;43.97
30819;BME280;17546;42.674;23.284;2023-11-21T07:48:32;94508.19;;;12.84;44.06
30819;BME280;17546;42.674;23.284;2023-11-21T07:50:58;94491.13;;;12.68;43.82
30819;BME280;17546;42.674;23.284;2023-11-21T07:53:27;94518.66;;;13.02;44.04
30819;BME280;17546;42.674;23.284;2023-11-21T07:55:58;94541.84;;;13.10;43.96
30819;BME280;17546;42.674;23.284;2023-11-21T07:58:24;94491.06;;;12.74;44.11
30819;BME280;17546;42.674;23.284;2023-11-21T08:00:50;94502.44;;;13.06;43.68
30819;BME280;17546;42.674;23.284;2023-11-21T08:03:16;94486.22;;;13.10;43.29
30819;BME280;17546;42.674;23.284;2023-11-21T08:05:42;94486.63;;;13.20;43.35
30819;BME280;17546;42.674;23.284;2023-11-21T08:08:08;94518.28;;;13.47;43.41
30819;BME280;17546;42.674;23.284;2023-11-21T08:10:33;94494.09;;;13.36;43.27
30819;BME280;17546;42.674;23.284;2023-11-21T08:12:59;94493.75;;;13.46;43.16
30819;BME280;17546;42.674;23.284;2023-11-21T08:15:24;94492.16;;;12.95;44.09
30819;BME280;17546;42.674;23.284;2023-11-21T08:17:50;94515.44;;;13.53;43.31
30819;BME280;17546;42.674;23.284;2023-11-21T08:20:16;94493.75;;;13.46;43.13
30819;BME280;17546;42.674;23.284;2023-11-21T08:22:42;94485.25;;;12.77;44.43
30819;BME280;17546;42.674;23.284;2023-11-21T08:25:08;94510.91;;;13.50;43.37
30819;BME280;17546;42.674;23.284;2023-11-21T08:27:35;94511.66;;;13.75;43.20
30819;BME280;17546;42.674;23.284;2023-11-21T08:30:02;94523.94;;;13.85;43.00
30819;BME280;17546;42.674;23.284;2023-11-21T08:32:28;94517.03;;;13.92;42.64
30819;BME280;17546;42.674;23.284;2023-11-21T08:34:55;94484.22;;;13.84;42.35
30819;BME280;17546;42.674;23.284;2023-11-21T08:37:20;94519.59;;;13.90;42.87
30819;BME280;17546;42.674;23.284;2023-11-21T08:39:52;94456.13;;;13.39;43.05
30819;BME280;17546;42.674;23.284;2023-11-21T08:42:18;94450.94;;;13.73;42.12
30819;BME280;17546;42.674;23.284;2023-11-21T08:44:43;94481.59;;;13.92;42.25
30819;BME280;17546;42.674;23.284;2023-11-21T08:47:09;94513.75;;;14.31;42.10
30819;BME280;17546;42.674;23.284;2023-11-21T08:49:34;94485.75;;;14.23;41.87
30819;BME280;17546;42.674;23.284;2023-11-21T08:52:00;94517.50;;;14.53;41.70
30819;BME280;17546;42.674;23.284;2023-11-21T08:54:28;94513.19;;;14.57;41.45
30819;BME280;17546;42.674;23.284;2023-11-21T08:56:54;94470.38;;;14.36;41.24
30819;BME280;17546;42.674;23.284;2023-11-21T08:59:20;94488.75;;;14.63;41.32
30819;BME280;17546;42.674;23.284;2023-11-21T09:01:48;94466.91;;;14.30;41.32
30819;BME280;17546;42.674;23.284;2023-11-21T09:04:14;94446.84;;;14.18;41.09
30819;BME280;17546;42.674;23.284;2023-11-21T09:06:39;94461.75;;;14.53;41.18
30819;BME280;17546;42.674;23.284;2023-11-21T09:09:05;94411.94;;;14.30;41.20
30819;BME280;17546;42.674;23.284;2023-11-21T09:11:32;94441.16;;;14.42;41.15
30819;BME280;17546;42.674;23.284;2023-11-21T09:13:59;94416.31;;;14.44;41.04
30819;BME280;17546;42.674;23.284;2023-11-21T09:16:25;94431.94;;;14.66;41.21
30819;BME280;17546;42.674;23.284;2023-11-21T09:18:50;94420.34;;;14.62;41.19
30819;BME280;17546;42.674;23.284;2023-11-21T09:21:17;94397.38;;;14.56;41.32
30819;BME280;17546;42.674;23.284;2023-11-21T09:23:44;94414.94;;;14.51;41.37
30819;BME280;17546;42.674;23.284;2023-11-21T09:26:11;94410.91;;;14.65;41.14
30819;BME280;17546;42.674;23.284;2023-11-21T09:28:37;94425.13;;;14.81;40.94
30819;BME280;17546;42.674;23.284;2023-11-21T09:31:07;94373.75;;;14.76;40.90
30819;BME280;17546;42.674;23.284;2023-11-21T09:33:34;94376.97;;;14.80;40.33
30819;BME280;17546;42.674;23.284;2023-11-21T09:36:00;94374.97;;;15.07;40.21
30819;BME280;17546;42.674;23.284;2023-11-21T09:38:26;94375.19;;;15.23;40.64
30819;BME280;17546;42.674;23.284;2023-11-21T09:40:54;94332.59;;;14.96;40.02
30819;BME280;17546;42.674;23.284;2023-11-21T09:43:20;94366.59;;;15.21;40.06
30819;BME280;17546;42.674;23.284;2023-11-21T09:45:51;94387.09;;;15.50;39.72
30819;BME280;17546;42.674;23.284;2023-11-21T09:48:32;94383.66;;;15.57;40.37
30819;BME280;17546;42.674;23.284;2023-11-21T09:51:01;94332.91;;;15.19;39.83
30819;BME280;17546;42.674;23.284;2023-11-21T09:53:31;94341.03;;;15.57;39.78
30819;BME280;17546;42.674;23.284;2023-11-21T09:55:58;94353.53;;;15.90;39.94
30819;BME280;17546;42.674;23.284;2023-11-21T09:58:27;94349.91;;;15.82;39.88
30819;BME280;17546;42.674;23.284;2023-11-21T10:00:57;94356.41;;;15.98;39.67
30819;BME280;17546;42.674;23.284;2023-11-21T10:03:25;94342.56;;;16.26;38.91
30819;BME280;17546;42.674;23.284;2023-11-21T10:05:51;94347.00;;;16.43;38.77
30819;BME280;17546;42.674;23.284;2023-11-21T10:08:23;94345.69;;;16.44;38.32
30819;BME280;17546;42.674;23.284;2023-11-21T10:11:11;94209.91;;;15.64;38.38
30819;BME280;17546;42.674;23.284;2023-11-21T10:13:37;94259.13;;;15.88;38.33
30819;BME280;17546;42.674;23.284;2023-11-21T10:16:05;94292.84;;;16.11;38.26
30819;BME280;17546;42.674;23.284;2023-11-21T10:18:33;94288.44;;;15.47;39.16
30819;BME280;17546;42.674;23.284;2023-11-21T10:20:59;94310.59;;;16.14;38.59
30819;BME280;17546;42.674;23.284;2023-11-21T10:23:26;94283.50;;;15.40;39.31
30819;BME280;17546;42.674;23.284;2023-11-21T10:25:52;94321.00;;;16.14;38.45
30819;BME280;17546;42.674;23.284;2023-11-21T10:28:18;94293.25;;;16.16;38.20
30819;BME280;17546;42.674;23.284;2023-11-21T10:30:44;94323.53;;;16.46;38.28
30819;BME280;17546;42.674;23.284;2023-11-21T10:33:10;94310.13;;;16.23;37.90
30819;BME280;17546;42.674;23.284;2023-11-21T10:35:48;94306.84;;;16.32;38.03
30819;BME280;17546;42.674;23.284;2023-11-21T10:38:22;94302.00;;;16.33;38.12
30819;BME280;17546;42.674;23.284;2023-11-21T10:40:50;94287.47;;;16.35;37.31
30819;BME280;17546;42.674;23.284;2023-11-21T10:43:16;94298.81;;;16.79;36.95
30819;BME280;17546;42.674;23.284;2023-11-21T10:45:42;94304.00;;;16.96;37.05
30819;BME280;17546;42.674;23.284;2023-11-21T10:48:15;94298.44;;;17.03;36.71
30819;BME280;17546;42.674;23.284;2023-11-21T10:50:41;94294.94;;;17.10;36.84
30819;BME280;17546;42.674;23.284;2023-11-21T10:53:08;94294.47;;;16.70;37.23
30819;BME280;17546;42.674;23.284;2023-11-21T10:55:34;94258.53;;;16.03;37.71
30819;BME280;17546;42.674;23.284;2023-11-21T10:58:01;94292.63;;;16.93;36.54
30819;BME280;17546;42.674;23.284;2023-11-21T11:00:29;94297.69;;;17.03;36.36
30819;BME280;17546;42.674;23.284;2023-11-21T11:02:55;94280.66;;;16.93;36.71
30819;BME280;17546;42.674;23.284;2023-11-21T11:05:23;94273.81;;;17.02;36.24
30819;BME280;17546;42.674;23.284;2023-11-21T11:08:08;94268.47;;;17.11;36.16
30819;BME280;17546;42.674;23.284;2023-11-21T11:10:34;94226.44;;;16.75;36.49
30819;BME280;17546;42.674;23.284;2023-11-21T11:13:00;94238.66;;;16.85;36.44
30819;BME280;17546;42.674;23.284;2023-11-21T11:15:27;94231.41;;;16.90;36.45
30819;BME280;17546;42.674;23.284;2023-11-21T11:17:54;94266.63;;;17.22;36.29
30819;BME280;17546;42.674;23.284;2023-11-21T11:20:23;94255.28;;;17.20;35.87
30819;BME280;17546;42.674;23.284;2023-11-21T11:22:59;94218.81;;;17.04;36.20
30819;BME280;17546;42.674;23.284;2023-11-21T11:25:47;94245.22;;;17.32;36.39
30819;BME280;17546;42.674;23.284;2023-11-21T11:28:20;94208.91;;;17.03;36.66
30819;BME280;17546;42.674;23.284;2023-11-21T11:31:15;94138.53;;;16.55;36.47
30819;BME280;17546;42.674;23.284;2023-11-21T11:34:06;94241.34;;;17.43;36.12
30819;BME280;17546;42.674;23.284;2023-11-21T11:36:55;94234.06;;;17.40;36.32
30819;BME280;17546;42.674;23.284;2023-11-21T11:39:27;94230.59;;;16.53;36.63
30819;BME280;17546;42.674;23.284;2023-11-21T11:41:55;94242.38;;;17.17;35.82
30819;BME280;17546;42.674;23.284;2023-11-21T11:47:15;94249.97;;;17.08;36.85
30819;BME280;17546;42.674;23.284;2023-11-21T11:50:01;94257.59;;;17.00;37.17
30819;BME280;17546;42.674;23.284;2023-11-21T11:52:40;94252.09;;;16.87;37.44
30819;BME280;17546;42.674;23.284;2023-11-21T11:55:07;94241.38;;;17.06;37.14
30819;BME280;17546;42.674;23.284;2023-11-21T11:57:35;94199.16;;;16.89;38.03
30819;BME280;17546;42.674;23.284;2023-11-21T12:00:11;94240.91;;;17.23;39.00
30819;BME280;17546;42.674;23.284;2023-11-21T12:02:38;94240.88;;;17.16;39.06
30819;BME280;17546;42.674;23.284;2023-11-21T12:05:16;94264.59;;;17.22;39.35
30819;BME280;17546;42.674;23.284;2023-11-21T12:07:52;94254.59;;;16.98;40.67
30819;BME280;17546;42.674;23.284;2023-11-21T12:10:23;94229.91;;;16.60;39.75
30819;BME280;17546;42.674;23.284;2023-11-21T12:12:58;94236.66;;;16.65;40.03
30819;BME280;17546;42.674;23.284;2023-11-21T12:15:24;94262.06;;;16.25;40.61
30819;BME280;17546;42.674;23.284;2023-11-21T12:17:51;94255.84;;;16.40;40.91
30819;BME280;17546;42.674;23.284;2023-11-21T12:20:21;94263.06;;;16.35;42.56
30819;BME280;17546;42.674;23.284;2023-11-21T12:22:48;94233.06;;;16.36;43.24
30819;BME280;17546;42.674;23.284;2023-11-21T12:25:19;94233.59;;;16.55;42.84
30819;BME280;17546;42.674;23.284;2023-11-21T12:27:46;94203.84;;;16.37;42.71
30819;BME280;17546;42.674;23.284;2023-11-21T12:30:13;94206.69;;;15.95;42.63
30819;BME280;17546;42.674;23.284;2023-11-21T12:32:43;94256.66;;;16.27;42.48
30819;BME280;17546;42.674;23.284;2023-11-21T12:35:12;94220.16;;;16.04;42.18
30819;BME280;17546;42.674;23.284;2023-11-21T12:37:38;94236.34;;;16.26;42.61
30819;BME280;17546;42.674;23.284;2023-11-21T12:40:06;94229.69;;;16.29;42.90
30819;BME280;17546;42.674;23.284;2023-11-21T12:42:33;94201.63;;;16.14;43.25
30819;BME280;17546;42.674;23.284;2023-11-21T12:45:09;94204.19;;;15.70;43.69
30819;BME280;17546;42.674;23.284;2023-11-21T12:47:44;94178.84;;;15.47;43.17
30819;BME280;17546;42.674;23.284;2023-11-21T12:50:13;94201.44;;;15.91;43.22
30819;BME280;17546;42.674;23.284;2023-11-21T12:52:43;94169.75;;;15.88;43.27
30819;BME280;17546;42.674;23.284;2023-11-21T12:55:16;94209.03;;;16.11;43.52
30819;BME280;17546;42.674;23.284;2023-11-21T12:57:47;94203.84;;;16.16;43.39
30819;BME280;17546;42.674;23.284;2023-11-21T13:00:16;94190.84;;;16.18;43.24
30819;BME280;17546;42.674;23.284;2023-11-21T13:02:52;94194.81;;;16.23;43.59
30819;BME280;17546;42.674;23.284;2023-11-21T13:05:30;94195.94;;;16.27;43.44
30819;BME280;17546;42.674;23.284;2023-11-21T13:07:58;94189.41;;;16.25;42.70
30819;BME280;17546;42.674;23.284;2023-11-21T13:10:25;94195.75;;;16.25;43.41